Time;durP1;ratioP1;P1;durP2;ratioP2;P2;SDS_P1;SDS_P2;PMS_P1;PMS_P2;Temp;Humidity;BMP_temperature;BMP_pressure;BME280_temperature;BME280_humidity;BME280_pressure;Samples;Min_cycle;Max_cycle;Signal;HPM_P1;HPM_P2
2022/09/03 00:00:19;;;;;;;5.50;2.20;;;;;;;20.42;40.90;101088.53;5076584;28;20028;-49
2022/09/03 00:03:09;;;;;;;7.97;2.35;;;;;;;20.47;40.85;101089.41;5069437;28;20028;-48
2022/09/03 00:05:45;;;;;;;5.38;2.05;;;;;;;20.38;41.37;101094.66;5073492;28;20020;-47
2022/09/03 00:08:15;;;;;;;4.60;2.10;;;;;;;20.34;40.88;101094.72;5067762;28;20028;-48
2022/09/03 00:10:52;;;;;;;9.60;2.30;;;;;;;20.27;41.14;101089.56;5073840;28;20021;-50
2022/09/03 00:13:31;;;;;;;6.63;2.20;;;;;;;20.33;41.03;101092.97;5068880;28;20023;-49
2022/09/03 00:15:58;;;;;;;5.95;2.20;;;;;;;20.24;41.20;101085.22;5067606;28;20082;-50
2022/09/03 00:18:28;;;;;;;4.43;2.20;;;;;;;20.17;41.36;101085.28;5066341;28;20097;-49
2022/09/03 00:21:07;;;;;;;5.03;2.20;;;;;;;20.21;41.18;101093.09;5073320;28;20056;-49
2022/09/03 00:23:36;;;;;;;5.53;2.30;;;;;;;20.05;41.57;101084.50;5059656;28;20036;-46
2022/09/03 00:26:13;;;;;;;3.17;1.98;;;;;;;20.14;41.32;101093.13;5062247;28;20050;-48
2022/09/03 00:28:50;;;;;;;8.05;2.45;;;;;;;20.10;41.63;101092.28;5062300;28;20032;-48
2022/09/03 00:31:26;;;;;;;5.30;2.28;;;;;;;20.06;41.38;101088.81;5079368;28;20028;-45
2022/09/03 00:33:57;;;;;;;5.57;2.38;;;;;;;20.03;41.70;101086.25;5073392;28;20025;-48
2022/09/03 00:36:32;;;;;;;6.40;2.50;;;;;;;20.01;41.67;101077.53;5075145;28;20548;-50
2022/09/03 00:38:58;;;;;;;6.88;2.53;;;;;;;19.99;41.75;101086.28;5076171;28;20032;-50
2022/09/03 00:41:44;;;;;;;6.45;2.47;;;;;;;20.03;41.52;101085.41;5078061;28;20036;-48
2022/09/03 00:44:18;;;;;;;5.72;2.35;;;;;;;19.93;41.95;101092.41;5073192;28;20488;-48
2022/09/03 00:47:00;;;;;;;6.20;2.75;;;;;;;19.97;41.67;101090.66;5074527;28;20484;-50
2022/09/03 00:49:44;;;;;;;5.07;2.10;;;;;;;19.87;41.89;101088.97;5081613;28;20410;-47
2022/09/03 00:52:29;;;;;;;5.82;2.50;;;;;;;19.87;41.69;101089.84;5082074;28;20477;-50
2022/09/03 00:55:44;;;;;;;6.82;2.67;;;;;;;19.94;41.39;101088.06;5073861;28;20392;-50
2022/09/03 00:58:28;;;;;;;8.00;2.70;;;;;;;19.74;41.90;101090.81;5058546;28;20055;-48
2022/09/03 01:00:54;;;;;;;9.30;2.75;;;;;;;19.78;41.84;101082.09;5077109;28;20161;-47
2022/09/03 01:03:33;;;;;;;5.70;2.33;;;;;;;19.85;41.56;101085.53;5073620;28;20123;-50
2022/09/03 01:06:23;;;;;;;6.97;2.53;;;;;;;19.81;41.67;101087.28;5072088;28;20127;-50
2022/09/03 01:09:47;;;;;;;5.15;2.25;;;;;;;19.90;41.62;101088.94;5079634;28;20040;-49
2022/09/03 01:12:25;;;;;;;8.88;2.45;;;;;;;19.77;41.90;101086.41;4997418;28;20045;-50
2022/09/03 01:15:07;;;;;;;4.28;2.40;;;;;;;19.71;42.11;101077.75;4992509;28;20034;-50
2022/09/03 01:18:04;;;;;;;7.57;2.55;;;;;;;19.74;42.00;101082.97;5061111;28;20131;-50
2022/09/03 01:20:37;;;;;;;5.78;2.60;;;;;;;19.70;42.05;101081.25;5083367;28;20035;-48
2022/09/03 01:23:15;;;;;;;10.63;2.60;;;;;;;19.58;42.25;101086.50;5077933;28;20537;-48
2022/09/03 01:26:03;;;;;;;5.32;2.25;;;;;;;19.59;42.28;101078.69;5076019;28;20709;-48
2022/09/03 01:28:55;;;;;;;5.30;2.50;;;;;;;19.64;42.00;101081.28;5074102;28;20577;-47
2022/09/03 01:31:34;;;;;;;8.05;2.58;;;;;;;19.56;42.46;101089.13;5070308;28;20029;-47
2022/09/03 01:34:24;;;;;;;9.68;2.50;;;;;;;19.59;42.20;101090.88;5077939;28;20392;-49
2022/09/03 01:37:07;;;;;;;6.55;2.70;;;;;;;19.51;42.61;101086.53;5071902;28;20515;-50
2022/09/03 01:39:51;;;;;;;8.93;2.70;;;;;;;19.50;42.51;101086.56;5070857;28;20134;-46
2022/09/03 01:42:29;;;;;;;6.93;2.88;;;;;;;19.39;42.87;101090.94;5074736;28;20028;-46
2022/09/03 01:45:05;;;;;;;8.82;3.15;;;;;;;19.38;42.87;101094.44;5077259;28;20484;-50
2022/09/03 01:47:36;;;;;;;6.45;3.33;;;;;;;19.35;42.74;101073.56;5075286;28;20430;-51
2022/09/03 01:50:28;;;;;;;5.60;2.83;;;;;;;19.41;42.57;101078.75;5076850;28;20063;-47
2022/09/03 01:53:06;;;;;;;6.90;2.88;;;;;;;19.38;42.78;101082.25;5079140;28;20036;-48
2022/09/03 01:55:32;;;;;;;6.45;2.72;;;;;;;19.29;42.95;101084.88;5076604;28;20499;-49
2022/09/03 01:58:01;;;;;;;6.65;2.75;;;;;;;19.22;43.49;101086.66;5074254;28;20051;-49
2022/09/03 02:00:30;;;;;;;5.20;2.60;;;;;;;19.23;43.13;101082.31;5079513;28;20040;-51
2022/09/03 02:03:04;;;;;;;6.22;2.63;;;;;;;19.24;43.01;101084.94;5077909;28;20593;-50
2022/09/03 02:05:30;;;;;;;7.15;2.60;;;;;;;19.13;43.49;101084.09;5073134;28;20029;-47
2022/09/03 02:08:02;;;;;;;7.15;2.90;;;;;;;19.20;43.15;101090.16;5073217;28;20051;-50
2022/09/03 02:10:44;;;;;;;7.95;2.83;;;;;;;19.23;43.00;101085.81;5074901;28;20024;-49
2022/09/03 02:13:40;;;;;;;7.80;2.97;;;;;;;19.25;43.01;101083.19;5074905;28;20051;-50
2022/09/03 02:16:14;;;;;;;7.78;2.67;;;;;;;19.13;43.54;101080.63;5048336;28;20045;-50
2022/09/03 02:18:44;;;;;;;5.35;2.60;;;;;;;19.14;43.41;101071.94;5072320;28;21086;-50
2022/09/03 02:21:12;;;;;;;5.95;2.40;;;;;;;19.10;43.46;101072.81;5079004;28;20033;-47
2022/09/03 02:23:39;;;;;;;6.78;2.47;;;;;;;19.11;43.69;101071.94;5078968;28;20032;-50
2022/09/03 02:26:07;;;;;;;5.90;2.90;;;;;;;19.10;43.83;101078.03;5076903;28;20033;-50
2022/09/03 02:28:33;;;;;;;5.45;2.78;;;;;;;19.00;43.58;101075.47;5072833;28;20511;-49
2022/09/03 02:30:58;;;;;;;6.75;2.80;;;;;;;18.94;43.76;101083.28;5073390;28;20036;-50
2022/09/03 02:33:24;;;;;;;8.27;2.83;;;;;;;18.93;43.69;101071.16;5075733;28;20580;-50
2022/09/03 02:35:50;;;;;;;6.97;2.75;;;;;;;18.90;43.81;101076.34;5077753;28;20051;-48
2022/09/03 02:38:18;;;;;;;6.20;3.20;;;;;;;18.91;43.76;101075.47;5074857;28;20508;-48
2022/09/03 02:40:44;;;;;;;5.63;2.72;;;;;;;18.88;43.85;101077.25;5074983;28;20020;-46
2022/09/03 02:43:17;;;;;;;5.32;2.70;;;;;;;18.90;43.61;101075.47;5077057;28;20412;-49
2022/09/03 02:45:47;;;;;;;8.07;2.60;;;;;;;18.87;44.11;101071.16;5076078;28;20043;-47
2022/09/03 02:48:17;;;;;;;8.15;2.53;;;;;;;18.93;43.93;101078.09;5079209;28;20028;-50
2022/09/03 02:50:43;;;;;;;5.55;2.50;;;;;;;18.81;44.08;101079.00;5076612;28;20465;-50
2022/09/03 02:53:08;;;;;;;5.28;2.33;;;;;;;18.78;44.11;101076.38;5073030;28;20043;-50
2022/09/03 02:55:34;;;;;;;4.07;2.40;;;;;;;18.79;43.96;101074.63;5076706;28;20365;-50
2022/09/03 02:58:00;;;;;;;5.25;2.15;;;;;;;18.79;44.47;101077.25;5069926;28;20049;-46
2022/09/03 03:00:27;;;;;;;3.58;2.15;;;;;;;18.72;44.35;101081.59;5076207;28;20028;-50
2022/09/03 03:02:54;;;;;;;5.95;2.40;;;;;;;18.74;44.52;101075.50;5072117;28;20024;-45
2022/09/03 03:05:41;;;;;;;7.03;2.42;;;;;;;18.78;44.24;101073.78;5073955;28;20558;-54
2022/09/03 03:08:07;;;;;;;6.28;2.30;;;;;;;18.67;44.37;101076.41;5072713;28;20035;-48
2022/09/03 03:10:34;;;;;;;4.20;2.60;;;;;;;18.67;44.51;101073.78;5071064;28;20028;-50
2022/09/03 03:13:00;;;;;;;8.48;2.45;;;;;;;18.63;44.35;101069.44;5070767;28;20135;-49
2022/09/03 03:15:26;;;;;;;6.03;2.70;;;;;;;18.62;44.40;101069.44;5071500;28;20173;-50
2022/09/03 03:17:55;;;;;;;8.30;2.90;;;;;;;18.62;44.52;101070.28;5071001;28;20058;-48
2022/09/03 03:20:20;;;;;;;9.15;2.63;;;;;;;18.62;44.65;101070.28;5074010;28;20036;-49
2022/09/03 03:22:45;;;;;;;5.00;2.50;;;;;;;18.54;44.52;101068.56;5069924;28;20056;-50
2022/09/03 03:25:11;;;;;;;10.57;2.83;;;;;;;18.57;44.63;101073.81;5074184;28;20028;-46
2022/09/03 03:27:41;;;;;;;3.83;2.45;;;;;;;18.52;44.82;101073.81;5075713;28;20085;-47
2022/09/03 03:30:09;;;;;;;4.68;2.47;;;;;;;18.50;44.72;101065.09;5077977;28;20029;-49
2022/09/03 03:32:35;;;;;;;6.45;2.88;;;;;;;18.48;45.10;101066.84;5072492;28;20450;-49
2022/09/03 03:35:01;;;;;;;8.23;2.58;;;;;;;18.51;44.97;101073.81;5067990;28;20025;-50
2022/09/03 03:37:26;;;;;;;5.85;2.60;;;;;;;18.44;45.06;101075.53;5079290;28;20028;-50
2022/09/03 03:39:51;;;;;;;5.32;2.40;;;;;;;18.45;44.67;101083.34;5076117;28;20036;-50
2022/09/03 03:42:17;;;;;;;8.13;2.78;;;;;;;18.40;45.11;101090.28;5072926;28;20026;-50
2022/09/03 03:44:42;;;;;;;6.90;2.40;;;;;;;18.37;45.19;101073.78;5075170;28;20056;-47
2022/09/03 03:47:08;;;;;;;6.20;2.15;;;;;;;18.36;45.06;101085.09;5076127;28;20048;-50
2022/09/03 03:49:33;;;;;;;9.23;2.25;;;;;;;18.35;45.06;101084.22;5074030;28;20089;-49
2022/09/03 03:51:59;;;;;;;7.40;2.10;;;;;;;18.34;45.35;101079.03;5071132;28;20029;-49
2022/09/03 03:54:25;;;;;;;5.05;2.30;;;;;;;18.33;44.91;101072.09;5073890;28;20103;-51
2022/09/03 03:56:50;;;;;;;4.15;2.25;;;;;;;18.35;45.31;101078.16;5073255;28;20090;-48
2022/09/03 03:59:15;;;;;;;5.50;2.30;;;;;;;18.37;45.33;101077.25;5068607;28;20080;-46
2022/09/03 04:01:40;;;;;;;5.28;2.30;;;;;;;18.35;45.32;101070.34;5070847;28;20115;-49
2022/09/03 04:04:06;;;;;;;5.35;2.35;;;;;;;18.32;45.35;101070.31;5076501;28;20064;-50
2022/09/03 04:06:31;;;;;;;6.38;2.30;;;;;;;18.32;45.23;101073.81;5077318;28;20126;-50
2022/09/03 04:08:57;;;;;;;5.32;2.28;;;;;;;18.26;45.44;101070.31;5076023;28;20384;-50
2022/09/03 04:11:24;;;;;;;5.55;2.30;;;;;;;18.27;45.49;101069.47;5076444;28;20040;-51
2022/09/03 04:13:50;;;;;;;5.45;2.40;;;;;;;18.21;45.71;101067.75;5076257;28;20020;-47
2022/09/03 04:16:18;;;;;;;6.75;2.88;;;;;;;18.22;45.63;101062.53;5078965;28;20028;-50
2022/09/03 04:18:44;;;;;;;4.43;2.47;;;;;;;18.20;45.66;101068.59;5073347;28;20028;-49
2022/09/03 04:21:12;;;;;;;6.47;2.72;;;;;;;18.16;45.88;101066.88;5064371;28;20039;-48
2022/09/03 04:23:40;;;;;;;8.10;2.47;;;;;;;18.18;45.79;101071.19;5080092;28;20036;-48
2022/09/03 04:26:07;;;;;;;5.70;2.60;;;;;;;18.18;46.06;101070.34;5080509;28;20036;-48
2022/09/03 04:28:33;;;;;;;6.82;2.92;;;;;;;18.13;45.85;101067.72;5077573;28;20028;-49
2022/09/03 04:31:03;;;;;;;5.53;2.60;;;;;;;18.12;45.94;101058.19;5077990;28;20031;-49
2022/09/03 04:33:30;;;;;;;5.45;2.50;;;;;;;18.10;45.78;101062.53;5070197;28;20122;-50
2022/09/03 04:36:04;;;;;;;11.65;2.90;;;;;;;18.15;45.81;101062.53;5073409;28;20477;-48
2022/09/03 04:38:31;;;;;;;5.90;2.50;;;;;;;18.08;46.05;101058.19;5071467;28;22143;-50
2022/09/03 04:40:58;;;;;;;6.22;2.70;;;;;;;18.11;45.89;101060.78;5072780;28;20086;-48
2022/09/03 04:43:23;;;;;;;5.82;2.20;;;;;;;18.04;46.13;101057.31;5072588;28;20032;-49
2022/09/03 04:45:49;;;;;;;8.57;3.05;;;;;;;18.06;46.24;101055.59;5076225;28;20433;-50
2022/09/03 04:48:14;;;;;;;5.70;2.30;;;;;;;18.02;46.21;101060.78;5074218;28;20042;-49
2022/09/03 04:50:40;;;;;;;4.97;2.25;;;;;;;18.00;46.20;101063.38;5068462;28;20033;-51
2022/09/03 04:53:06;;;;;;;5.95;2.40;;;;;;;18.00;46.14;101063.38;5070117;28;20032;-50
2022/09/03 04:55:35;;;;;;;3.85;2.15;;;;;;;17.95;46.39;101072.91;5078713;28;21082;-48
2022/09/03 04:58:01;;;;;;;9.02;2.50;;;;;;;17.95;46.55;101062.50;5075620;28;20166;-47
2022/09/03 05:00:26;;;;;;;4.57;2.05;;;;;;;17.98;46.62;101069.47;5075767;28;20263;-49
2022/09/03 05:02:52;;;;;;;3.08;1.95;;;;;;;17.96;46.51;101066.88;5067787;28;20511;-50
2022/09/03 05:05:17;;;;;;;5.85;2.22;;;;;;;17.95;46.45;101078.13;5075845;28;20036;-48
2022/09/03 05:07:43;;;;;;;6.03;2.25;;;;;;;17.96;46.88;101077.28;5073105;28;20061;-48
2022/09/03 05:10:19;;;;;;;4.38;2.10;;;;;;;17.92;46.86;101078.13;5080008;28;20036;-48
2022/09/03 05:12:46;;;;;;;5.90;2.40;;;;;;;17.90;46.87;101072.06;5072344;28;20108;-47
2022/09/03 05:15:13;;;;;;;5.82;2.35;;;;;;;17.86;46.75;101071.19;5072217;28;21316;-50
2022/09/03 05:17:38;;;;;;;5.55;2.10;;;;;;;17.87;46.78;101077.25;5069193;28;20800;-49
2022/09/03 05:20:08;;;;;;;5.28;2.45;;;;;;;17.85;47.07;101076.38;5071636;28;20036;-50
2022/09/03 05:22:34;;;;;;;5.13;2.22;;;;;;;17.79;47.10;101072.03;5072354;28;20036;-48
2022/09/03 05:24:59;;;;;;;5.40;2.25;;;;;;;17.83;47.06;101068.56;5070760;28;20016;-49
2022/09/03 05:27:25;;;;;;;5.00;2.28;;;;;;;17.76;47.05;101072.03;5077714;28;20093;-48
2022/09/03 05:29:50;;;;;;;10.25;2.60;;;;;;;17.85;47.27;101079.00;5072845;28;20462;-48
2022/09/03 05:32:16;;;;;;;5.65;2.38;;;;;;;17.79;47.18;101066.84;5073598;28;20070;-49
2022/09/03 05:34:42;;;;;;;4.32;1.92;;;;;;;17.74;47.47;101073.75;5074464;28;20028;-50
2022/09/03 05:37:07;;;;;;;6.30;2.20;;;;;;;17.79;47.26;101068.56;5070911;28;20036;-49
2022/09/03 05:39:33;;;;;;;6.03;2.08;;;;;;;17.80;47.15;101075.50;5074375;28;20053;-49
2022/09/03 05:41:58;;;;;;;4.05;2.00;;;;;;;17.82;47.39;101076.38;5075123;28;20035;-50
2022/09/03 05:44:23;;;;;;;6.75;2.30;;;;;;;17.81;47.79;101069.44;5076569;28;20055;-49
2022/09/03 05:46:50;;;;;;;5.38;2.38;;;;;;;17.82;47.52;101079.84;5071319;28;20036;-48
2022/09/03 05:49:16;;;;;;;7.05;2.08;;;;;;;17.75;47.34;101072.03;5075777;28;20057;-46
2022/09/03 05:51:42;;;;;;;5.93;2.47;;;;;;;17.80;47.88;101078.09;5074198;28;20047;-48
2022/09/03 05:54:09;;;;;;;6.53;2.20;;;;;;;17.77;48.12;101072.88;5071036;28;20066;-46
2022/09/03 05:56:35;;;;;;;4.88;2.03;;;;;;;17.78;47.62;101072.91;5073116;28;20028;-51
2022/09/03 05:59:06;;;;;;;6.13;2.35;;;;;;;17.83;47.71;101078.09;5073852;28;20109;-49
2022/09/03 06:01:40;;;;;;;6.80;2.53;;;;;;;17.86;47.68;101071.19;5072433;28;20473;-48
2022/09/03 06:04:10;;;;;;;10.07;2.20;;;;;;;17.90;47.81;101072.06;5073653;28;20024;-49
2022/09/03 06:06:38;;;;;;;3.80;2.30;;;;;;;17.95;47.76;101076.38;5073668;28;20031;-49
2022/09/03 06:09:16;;;;;;;5.72;2.58;;;;;;;17.94;47.84;101073.78;5072922;28;20032;-48
2022/09/03 06:11:42;;;;;;;7.70;2.50;;;;;;;17.97;47.59;101076.41;5077721;28;20458;-49
2022/09/03 06:14:10;;;;;;;4.70;2.30;;;;;;;17.98;47.63;101072.94;5073686;28;20036;-50
2022/09/03 06:16:41;;;;;;;5.55;2.05;;;;;;;18.09;47.46;101071.22;5072500;28;20043;-49
2022/09/03 06:19:09;;;;;;;4.15;2.22;;;;;;;18.09;47.61;101070.34;5072988;28;20428;-50
2022/09/03 06:21:41;;;;;;;6.18;2.20;;;;;;;18.18;47.32;101075.53;5073166;28;20036;-47
2022/09/03 06:24:08;;;;;;;8.27;2.55;;;;;;;18.19;47.09;101066.84;5071084;28;20036;-50
2022/09/03 06:26:33;;;;;;;6.72;2.33;;;;;;;18.21;47.26;101068.59;5075426;28;20031;-49
2022/09/03 06:28:59;;;;;;;4.75;2.15;;;;;;;18.27;47.21;101077.28;5078188;28;20044;-51
2022/09/03 06:31:24;;;;;;;6.53;2.35;;;;;;;18.28;47.14;101079.03;5078079;28;20027;-50
2022/09/03 06:33:50;;;;;;;7.50;2.10;;;;;;;18.27;47.33;101082.50;5072751;28;20779;-50
2022/09/03 06:36:17;;;;;;;5.35;2.25;;;;;;;18.29;47.10;101080.75;5073560;28;20071;-47
2022/09/03 06:38:44;;;;;;;10.48;2.25;;;;;;;18.28;47.33;101082.50;5068878;28;20029;-51
2022/09/03 06:41:12;;;;;;;5.47;2.20;;;;;;;18.28;47.21;101079.03;5078761;28;20054;-48
2022/09/03 06:43:40;;;;;;;7.82;2.53;;;;;;;18.34;47.28;101071.22;5075313;28;20034;-51
2022/09/03 06:46:06;;;;;;;3.67;2.08;;;;;;;18.33;47.30;101079.91;5078124;28;20028;-50
2022/09/03 06:48:33;;;;;;;5.65;2.30;;;;;;;18.36;47.61;101078.13;5071726;28;20036;-49
2022/09/03 06:51:00;;;;;;;7.82;2.38;;;;;;;18.37;47.19;101079.88;5071361;28;20040;-48
2022/09/03 06:53:27;;;;;;;8.15;2.38;;;;;;;18.42;47.40;101085.06;5074001;28;20028;-46
2022/09/03 06:55:58;;;;;;;6.88;2.25;;;;;;;18.44;47.37;101083.34;5075647;28;20051;-50
2022/09/03 06:58:28;;;;;;;8.57;2.05;;;;;;;18.46;47.48;101079.00;5076828;28;20044;-49
2022/09/03 07:00:53;;;;;;;7.53;2.20;;;;;;;18.56;47.53;101087.66;5072042;28;20485;-50
2022/09/03 07:03:19;;;;;;;6.35;1.90;;;;;;;18.63;47.43;101076.41;5071788;28;20052;-51
2022/09/03 07:05:46;;;;;;;6.25;1.90;;;;;;;18.77;46.95;101085.06;5075167;28;20040;-51
2022/09/03 07:08:12;;;;;;;6.25;1.88;;;;;;;18.91;46.93;101078.09;5073940;28;20028;-48
2022/09/03 07:10:37;;;;;;;7.32;2.00;;;;;;;19.10;46.35;101083.22;5071068;28;20739;-46
2022/09/03 07:13:05;;;;;;;8.38;1.70;;;;;;;19.14;45.88;101075.41;5066657;28;20113;-49
2022/09/03 07:15:33;;;;;;;5.63;1.75;;;;;;;19.25;46.14;101086.66;5070873;28;20102;-49
2022/09/03 07:17:59;;;;;;;6.78;2.25;;;;;;;19.38;46.04;101081.41;5070996;28;20044;-49
2022/09/03 07:20:25;;;;;;;3.60;1.60;;;;;;;19.55;45.87;101087.41;5068068;28;20086;-47
2022/09/03 07:22:54;;;;;;;4.25;2.05;;;;;;;19.70;45.99;101076.88;5065013;28;20512;-49
2022/09/03 07:25:19;;;;;;;;;;;;;;;19.86;46.09;101082.03;5075945;28;20119;-49
2022/09/03 07:27:46;;;;;;;4.20;1.83;;;;;;;20.00;45.37;101070.59;5072784;28;20038;-49
2022/09/03 07:30:11;;;;;;;5.72;2.10;;;;;;;20.10;44.62;101071.41;5069207;28;20064;-46
2022/09/03 07:32:39;;;;;;;6.03;1.80;;;;;;;20.27;44.80;101077.38;5074803;28;20475;-47
2022/09/03 07:35:05;;;;;;;6.22;1.80;;;;;;;20.40;44.21;101072.91;5075198;28;20036;-49
2022/09/03 07:37:31;;;;;;;6.18;1.98;;;;;;;20.53;43.69;101081.53;5078858;28;20020;-51
2022/09/03 07:39:57;;;;;;;8.57;2.00;;;;;;;20.66;43.50;101080.50;5077955;28;20032;-51
2022/09/03 07:42:22;;;;;;;7.00;1.98;;;;;;;20.78;43.91;101083.00;5078902;28;20070;-54
2022/09/03 07:44:47;;;;;;;6.03;1.90;;;;;;;20.87;42.76;101082.06;5074446;28;20043;-49
2022/09/03 07:47:13;;;;;;;7.32;1.90;;;;;;;20.97;43.02;101088.88;5080248;28;20131;-49
2022/09/03 07:49:39;;;;;;;5.25;2.10;;;;;;;21.01;42.83;101084.50;5075494;28;20036;-48
2022/09/03 07:52:06;;;;;;;9.45;2.15;;;;;;;21.08;43.28;101087.03;5079464;28;20607;-51
2022/09/03 07:54:31;;;;;;;4.32;2.17;;;;;;;21.18;42.56;101086.94;5075989;28;20478;-54
2022/09/03 07:56:57;;;;;;;9.02;1.92;;;;;;;21.27;42.70;101089.41;5073075;28;20024;-48
2022/09/03 07:59:23;;;;;;;7.45;2.30;;;;;;;21.33;42.29;101090.22;5075656;28;20060;-52
2022/09/03 08:01:49;;;;;;;9.20;2.30;;;;;;;21.41;41.96;101084.91;5068909;28;20096;-50
2022/09/03 08:04:15;;;;;;;7.72;2.33;;;;;;;21.47;41.97;101084.81;5072376;28;20028;-49
2022/09/03 08:06:41;;;;;;;7.18;2.30;;;;;;;21.54;41.89;101088.25;5077141;28;20507;-50
2022/09/03 08:09:10;;;;;;;11.30;2.53;;;;;;;21.62;42.38;101089.00;5069719;28;20466;-51
2022/09/03 08:11:37;;;;;;;8.48;2.40;;;;;;;21.69;42.91;101082.78;5071979;28;20024;-50
2022/09/03 08:14:05;;;;;;;10.07;2.92;;;;;;;21.75;41.74;101093.16;5072890;28;20020;-46
2022/09/03 08:16:33;;;;;;;8.75;3.13;;;;;;;21.71;41.87;101087.97;5071296;28;20024;-50
2022/09/03 08:18:59;;;;;;;8.10;2.88;;;;;;;21.74;42.07;101098.44;5070179;28;20392;-49
2022/09/03 08:21:25;;;;;;;10.65;3.10;;;;;;;21.75;41.74;101097.53;5073863;28;20036;-50
2022/09/03 08:23:55;;;;;;;10.27;3.05;;;;;;;21.80;41.75;101099.19;5074548;28;20044;-46
2022/09/03 08:26:21;;;;;;;7.95;2.85;;;;;;;21.97;41.34;101098.09;5071120;28;20024;-51
2022/09/03 08:28:48;;;;;;;13.20;3.55;;;;;;;21.99;41.48;101101.53;5068785;28;21594;-50
2022/09/03 08:31:19;;;;;;;10.30;3.08;;;;;;;22.12;41.63;101097.88;5072233;28;20047;-50
2022/09/03 08:33:49;;;;;;;12.65;3.67;;;;;;;22.18;41.18;101097.78;5070592;28;20021;-49
2022/09/03 08:36:26;;;;;;;8.77;3.58;;;;;;;22.26;41.22;101103.75;5077772;28;20349;-50
2022/09/03 08:38:55;;;;;;;11.40;3.58;;;;;;;22.33;41.37;101105.41;5073879;28;20040;-47
2022/09/03 08:41:21;;;;;;;13.27;3.55;;;;;;;22.41;41.28;101102.63;5073899;28;20028;-49
2022/09/03 08:44:22;;;;;;;8.57;3.78;;;;;;;22.47;40.83;101100.78;5071992;28;20424;-47
2022/09/03 08:47:04;;;;;;;11.30;3.20;;;;;;;22.55;41.48;101103.25;5078593;28;20496;-50
2022/09/03 08:49:55;;;;;;;8.70;3.85;;;;;;;22.49;40.84;101103.38;5071251;28;20066;-49
2022/09/03 08:52:25;;;;;;;11.13;3.67;;;;;;;22.52;40.14;101107.72;5078405;28;20115;-50
2022/09/03 08:54:53;;;;;;;8.45;3.33;;;;;;;22.58;41.23;101110.22;5077312;28;20024;-49
2022/09/03 08:57:20;;;;;;;10.75;3.50;;;;;;;22.71;41.32;101106.47;5075967;28;20032;-50
2022/09/03 08:59:50;;;;;;;11.63;3.22;;;;;;;22.77;41.43;101113.38;5074689;28;20083;-48
2022/09/03 09:02:38;;;;;;;11.80;3.65;;;;;;;22.84;40.69;101107.97;5072313;28;20038;-49
2022/09/03 09:05:24;;;;;;;9.02;3.35;;;;;;;22.93;41.70;101099.09;5075012;28;20157;-50
2022/09/03 09:08:18;;;;;;;10.88;3.70;;;;;;;23.05;41.48;101109.34;5081203;28;20027;-49
2022/09/03 09:10:47;;;;;;;8.50;3.53;;;;;;;23.08;40.21;101106.69;5082222;28;20090;-50
2022/09/03 09:13:48;;;;;;;11.18;3.65;;;;;;;23.15;40.47;101107.41;5076094;28;20122;-50
2022/09/03 09:16:31;;;;;;;13.18;3.67;;;;;;;23.17;39.82;101105.63;5077295;28;20178;-49
2022/09/03 09:19:13;;;;;;;9.07;3.28;;;;;;;23.12;39.42;101113.59;5074429;28;20024;-50
2022/09/03 09:21:45;;;;;;;9.75;3.40;;;;;;;23.26;39.78;101105.44;5077228;28;20028;-48
2022/09/03 09:24:21;;;;;;;11.07;4.35;;;;;;;23.37;39.85;101103.47;5078549;28;20020;-50
2022/09/03 09:26:47;;;;;;;12.35;4.20;;;;;;;23.42;39.64;101103.34;5074949;28;20031;-50
2022/09/03 09:29:14;;;;;;;13.25;3.55;;;;;;;23.42;39.39;101103.34;5081192;28;20031;-47
2022/09/03 09:31:44;;;;;;;8.18;2.70;;;;;;;23.49;39.95;101095.34;5077949;28;21371;-50
2022/09/03 09:34:10;;;;;;;14.00;3.22;;;;;;;23.53;39.71;101098.72;5078263;28;20028;-48
2022/09/03 09:36:48;;;;;;;11.93;2.85;;;;;;;23.58;39.44;101096.03;5070118;28;20584;-50
2022/09/03 09:39:16;;;;;;;10.68;2.88;;;;;;;23.61;39.46;101091.56;5074588;28;20103;-48
2022/09/03 09:41:43;;;;;;;7.80;2.72;;;;;;;23.73;39.91;101085.22;5073460;28;20063;-50
2022/09/03 09:44:18;;;;;;;10.05;2.90;;;;;;;23.83;40.05;101097.22;5077482;28;20032;-50
2022/09/03 09:46:44;;;;;;;9.00;2.53;;;;;;;23.94;38.70;101086.47;5069834;28;20081;-48
2022/09/03 09:49:31;;;;;;;10.13;3.08;;;;;;;23.98;38.61;101096.00;5071514;28;20040;-49
2022/09/03 09:52:11;;;;;;;8.68;2.97;;;;;;;24.09;38.81;101088.75;5080357;28;20031;-50
2022/09/03 09:54:37;;;;;;;10.30;3.35;;;;;;;24.11;38.81;101097.44;5073705;28;20024;-49
2022/09/03 09:57:05;;;;;;;6.75;2.47;;;;;;;24.20;38.84;101104.22;5071224;28;20036;-49
2022/09/03 09:59:32;;;;;;;10.20;2.50;;;;;;;24.23;36.55;101096.28;5080744;28;20501;-48
2022/09/03 10:02:26;;;;;;;7.95;2.22;;;;;;;24.31;37.27;101105.69;5077669;28;20028;-50
2022/09/03 10:04:55;;;;;;;5.57;2.53;;;;;;;24.34;36.32;101100.41;5065639;28;20052;-49
2022/09/03 10:07:32;;;;;;;9.52;2.40;;;;;;;24.40;36.81;101098.53;5082490;28;20504;-49
2022/09/03 10:10:04;;;;;;;5.32;2.85;;;;;;;24.53;37.17;101095.53;5082299;28;20185;-50
2022/09/03 10:12:43;;;;;;;8.40;2.45;;;;;;;24.58;37.29;101098.91;5082920;28;20035;-48
2022/09/03 10:15:19;;;;;;;7.18;3.15;;;;;;;24.64;36.76;101100.53;5073188;28;20090;-50
2022/09/03 10:18:03;;;;;;;14.00;3.30;;;;;;;24.68;36.42;101094.25;5075070;28;20114;-50
2022/09/03 10:20:46;;;;;;;7.75;3.38;;;;;;;24.74;36.57;101103.75;5074728;28;20391;-50
2022/09/03 10:23:28;;;;;;;12.02;3.58;;;;;;;24.92;37.35;101092.72;5079094;28;21190;-50
2022/09/03 10:25:54;;;;;;;8.68;3.60;;;;;;;25.02;35.89;101086.31;5072641;28;20085;-45
2022/09/03 10:28:28;;;;;;;8.13;3.75;;;;;;;25.08;35.69;101093.22;5078625;28;20468;-48
2022/09/03 10:31:17;;;;;;;9.93;3.60;;;;;;;25.24;35.62;101083.09;5072417;28;20056;-50
2022/09/03 10:33:43;;;;;;;8.75;2.72;;;;;;;25.33;35.00;101088.94;5069458;28;20062;-50
2022/09/03 10:36:18;;;;;;;6.68;2.15;;;;;;;25.35;34.59;101087.13;5069814;28;20032;-50
2022/09/03 10:38:52;;;;;;;5.95;2.55;;;;;;;25.43;34.75;101078.16;5072203;28;20028;-49
2022/09/03 10:41:32;;;;;;;8.77;2.47;;;;;;;25.57;34.72;101084.72;5072031;28;20028;-50
2022/09/03 10:44:29;;;;;;;4.38;2.17;;;;;;;25.73;34.51;101082.53;5069386;28;20056;-50
2022/09/03 10:47:09;;;;;;;6.53;2.00;;;;;;;25.95;34.58;101082.69;5054504;28;20070;-49
2022/09/03 10:49:53;;;;;;;19.55;2.45;;;;;;;26.02;34.23;101084.19;5077126;28;20028;-50
2022/09/03 10:52:48;;;;;;;7.32;1.90;;;;;;;26.15;33.89;101084.69;5070754;28;20024;-48
2022/09/03 10:55:30;;;;;;;7.45;1.70;;;;;;;26.38;33.66;101079.47;5066096;28;20043;-47
2022/09/03 10:58:36;;;;;;;5.53;2.10;;;;;;;26.66;33.89;101075.94;5065815;28;20045;-50
2022/09/03 11:01:40;;;;;;;5.68;1.98;;;;;;;26.97;33.70;101073.06;5039864;28;20032;-50
2022/09/03 11:04:18;;;;;;;6.90;1.80;;;;;;;27.02;32.75;101070.25;5071198;28;20477;-49
2022/09/03 11:06:53;;;;;;;6.63;1.98;;;;;;;27.23;32.99;101078.25;5073707;28;20106;-46
2022/09/03 11:09:21;;;;;;;5.10;1.73;;;;;;;27.40;32.94;101074.97;5069747;28;20230;-47
2022/09/03 11:11:56;;;;;;;16.08;2.40;;;;;;;27.67;32.91;101077.47;5074712;28;20091;-49
2022/09/03 11:14:31;;;;;;;9.52;1.60;;;;;;;27.83;32.79;101075.09;5068667;28;20047;-45
2022/09/03 11:17:10;;;;;;;7.65;1.67;;;;;;;27.84;31.77;101075.03;5070657;28;20117;-54
2022/09/03 11:19:46;;;;;;;7.88;1.85;;;;;;;27.97;31.64;101076.25;5073187;28;20032;-53
2022/09/03 11:22:16;;;;;;;5.40;1.80;;;;;;;27.97;30.63;101068.34;5066543;28;20424;-50
2022/09/03 11:24:44;;;;;;;4.13;1.85;;;;;;;28.05;30.83;101078.59;5071093;28;20028;-50
2022/09/03 11:27:49;;;;;;;7.40;1.65;;;;;;;28.35;31.52;101072.97;5062199;28;20070;-48
2022/09/03 11:30:23;;;;;;;5.78;1.90;;;;;;;28.41;31.27;101068.28;5054405;28;20391;-47
2022/09/03 11:32:55;;;;;;;4.50;1.90;;;;;;;28.53;30.74;101067.75;5071643;28;20499;-47
2022/09/03 11:35:32;;;;;;;6.70;2.20;;;;;;;28.66;30.83;101068.06;5066843;28;20086;-49
2022/09/03 11:38:07;;;;;;;4.72;2.05;;;;;;;28.72;30.88;101069.59;5070868;28;20063;-48
2022/09/03 11:40:39;;;;;;;4.97;1.88;;;;;;;28.92;29.99;101069.59;5072131;28;20489;-46
2022/09/03 11:43:05;;;;;;;5.10;2.03;;;;;;;28.95;30.33;101066.81;5068155;28;20029;-45
2022/09/03 11:45:30;;;;;;;4.78;2.22;;;;;;;28.95;30.51;101058.88;5070345;28;20036;-50